Dundee, United Kingdom

11:31 PM GMT on November 27, 2014 (GMT +0000)
IDUNDEE2 | Change Station
CLOSE
Current Station
Personal Weather Station
Location: Dundee, Scotland
Elevation: 59 ft
Nearby Weather Stations

Elev 59 ft 56.46 °N, 2.98 °W | Updated 21 seconds ago

Partly Cloudy
Partly Cloudy
49.8 °F
Feels Like 50 °F
N
0.0
Wind Variable Wind from ESE

Today
High -- | Low -- °F
--% Chance of Precip.
Yesterday
High -- | Low -- °F
Precip. -- in
8:14 AM 3:44 PM
Waxing Crescent, 34% visible
Pressure 29.62 in
Visibility 6.2 miles
Clouds Few 2000 ft
Windchill 50 °F
Dew Point 50 °F
Humidity 100%
Rainfall 0.06 in
Snow Depth Not available.
UV 0 out of 12
Pollen Not available.
Air Quality Not available.
Flu Activity Not available.
METAR EGPH 272320Z 36003KT 9999 FEW020 08/07 Q1003

More Conditions Fewer Conditions

Pressure 29.62 in
Visibility 6.2 miles
Clouds Few 2000 ft
Windchill 50 °F
Dew Point 50 °F
Humidity 100%
Rainfall 0.06 in
Snow Depth Not available.
UV 0 out of 12
Pollen Not available.
Air Quality Not available.
Flu Activity Not available.
METAR EGPH 272320Z 36003KT 9999 FEW020 08/07 Q1003

More Conditions Fewer Conditions

10-Day Weather Forecast

Almanac

Astronomy

Nov. 27, 2014 Rise Set
Actual Time
Civil Twilight
Nautical Twilight
Astronomical Twilight
Moon
Length of Visible Light
Length of Day
Tomorrow will be .
, % of the Moon is Illuminated

Today's Extremes

Country Highs Country Lows

Community

WunderPhotos

Upload Photos

1,774,139 photos uploaded!

WunderBlogs® & News

Nearby

Air Quality

  Air Quality AQ Index Pollutant
Not available.

Snow Depth

Station Depth Elevation

Earthquake Activity

City Distance Mag. Time & Date
Minimum magnitude displayed is 2.5.

Coastal Water Temperatures

Place Temperature

Nearby Weather Stations